Time;durP1;ratioP1;P1;durP2;ratioP2;P2;SDS_P1;SDS_P2;PMS_P1;PMS_P2;Temp;Humidity;BMP_temperature;BMP_pressure;BME280_temperature;BME280_humidity;BME280_pressure;Samples;Min_cycle;Max_cycle;Signal;HPM_P1;HPM_P2
2023/09/01 00:00:42;;;;;;;6.90;3.08;;;;;;;12.53;100.00;100915.91;4952312;28;20038;-70
2023/09/01 00:03:27;;;;;;;8.45;2.80;;;;;;;12.50;100.00;100927.44;4964853;28;20023;-69
2023/09/01 00:05:52;;;;;;;7.80;2.75;;;;;;;12.45;100.00;100922.75;4950989;28;20520;-69
2023/09/01 00:08:18;;;;;;;6.43;2.75;;;;;;;12.45;100.00;100921.91;4948162;28;20030;-68
2023/09/01 00:10:44;;;;;;;6.28;2.50;;;;;;;12.47;100.00;100930.38;4965522;28;20595;-69
2023/09/01 00:13:09;;;;;;;7.85;2.70;;;;;;;12.45;100.00;100924.50;4966903;28;20647;-68
2023/09/01 00:15:35;;;;;;;12.50;2.70;;;;;;;12.44;100.00;100925.50;4965965;28;20038;-69
2023/09/01 00:18:02;;;;;;;6.60;3.00;;;;;;;12.46;100.00;100923.56;4970510;28;20039;-69
2023/09/01 00:20:28;;;;;;;8.68;2.72;;;;;;;12.48;100.00;100923.38;4966767;28;20179;-69
2023/09/01 00:22:53;;;;;;;7.13;2.80;;;;;;;12.52;100.00;100928.09;4976336;28;20055;-69
2023/09/01 00:25:19;;;;;;;7.47;2.92;;;;;;;12.54;100.00;100915.72;4967753;28;20602;-69
2023/09/01 00:27:44;;;;;;;5.18;2.40;;;;;;;12.54;100.00;100920.13;4954453;28;20068;-69
2023/09/01 00:30:10;;;;;;;8.57;2.67;;;;;;;12.53;100.00;100926.31;4945449;28;20042;-69
2023/09/01 00:32:36;;;;;;;7.88;3.00;;;;;;;12.52;100.00;100922.88;4965250;28;20098;-69
2023/09/01 00:35:03;;;;;;;7.93;3.83;;;;;;;12.49;100.00;100914.59;4979797;28;20038;-69
2023/09/01 00:37:29;;;;;;;9.20;3.20;;;;;;;12.48;100.00;100921.59;4966324;28;20058;-69
2023/09/01 00:39:55;;;;;;;7.85;2.92;;;;;;;12.49;100.00;100914.59;4980316;28;20049;-69
2023/09/01 00:42:21;;;;;;;21.63;4.68;;;;;;;12.51;100.00;100910.03;4960501;28;20030;-69
2023/09/01 00:44:46;;;;;;;5.60;2.65;;;;;;;12.52;100.00;100899.47;4982034;28;20039;-68
2023/09/01 00:47:13;;;;;;;6.55;2.78;;;;;;;12.54;100.00;100907.13;4948867;28;20042;-68
2023/09/01 00:49:40;;;;;;;7.35;3.00;;;;;;;12.56;100.00;100910.34;4961746;28;20039;-68
2023/09/01 00:52:06;;;;;;;10.10;3.05;;;;;;;12.61;100.00;100902.88;4961770;28;20118;-68
2023/09/01 00:54:33;;;;;;;5.40;2.60;;;;;;;12.65;100.00;100904.16;4944294;28;20090;-68
2023/09/01 00:56:59;;;;;;;9.50;2.95;;;;;;;12.70;100.00;100914.09;4947430;28;20035;-67
2023/09/01 00:59:24;;;;;;;7.07;2.63;;;;;;;12.73;100.00;100904.13;4965697;28;20091;-68
2023/09/01 01:01:51;;;;;;;6.57;2.53;;;;;;;12.76;100.00;100892.59;4963704;28;20046;-68
2023/09/01 01:04:20;;;;;;;7.28;2.85;;;;;;;12.74;100.00;100887.56;4948219;28;20032;-68
2023/09/01 01:07:11;;;;;;;11.38;2.88;;;;;;;12.77;100.00;100881.19;4965520;28;20097;-68
2023/09/01 01:09:48;;;;;;;10.70;3.42;;;;;;;12.79;100.00;100880.06;4966195;28;20035;-68
2023/09/01 01:12:28;;;;;;;9.60;3.70;;;;;;;12.79;100.00;100874.03;4968433;28;20133;-68
2023/09/01 01:14:56;;;;;;;16.40;3.30;;;;;;;12.79;100.00;100877.47;4951148;28;20070;-68
2023/09/01 01:17:23;;;;;;;10.15;3.40;;;;;;;12.79;100.00;100879.22;4950447;28;20995;-67
2023/09/01 01:20:03;;;;;;;12.27;3.28;;;;;;;12.79;100.00;100882.66;4950361;28;20035;-68
2023/09/01 01:22:40;;;;;;;9.07;3.42;;;;;;;12.83;100.00;100880.53;4960605;28;20043;-67
2023/09/01 01:25:11;;;;;;;8.27;3.30;;;;;;;12.87;100.00;100881.81;4979692;28;20469;-68
2023/09/01 01:27:38;;;;;;;8.20;3.60;;;;;;;12.90;100.00;100884.06;4944796;28;20049;-68
2023/09/01 01:30:07;;;;;;;11.05;3.30;;;;;;;12.93;100.00;100885.53;4964792;28;20039;-68
2023/09/01 01:32:34;;;;;;;6.38;2.63;;;;;;;12.96;100.00;100886.00;4963219;28;20039;-68
2023/09/01 01:35:12;;;;;;;14.77;3.63;;;;;;;12.99;100.00;100887.44;4951360;28;20023;-68
2023/09/01 01:37:50;;;;;;;12.60;3.90;;;;;;;13.06;100.00;100883.19;4947102;28;20046;-67
2023/09/01 01:40:18;;;;;;;9.85;4.28;;;;;;;13.01;100.00;100883.69;4965753;28;20122;-67
2023/09/01 01:42:47;;;;;;;7.05;3.30;;;;;;;12.99;100.00;100877.03;4952417;28;20050;-68
2023/09/01 01:45:16;;;;;;;11.75;3.00;;;;;;;13.00;100.00;100870.88;4971474;28;20039;-68
2023/09/01 01:47:42;;;;;;;7.38;3.30;;;;;;;13.03;100.00;100879.16;4975301;28;20416;-67
2023/09/01 01:50:08;;;;;;;9.55;2.88;;;;;;;13.05;100.00;100879.78;4979028;28;20878;-68
2023/09/01 01:52:33;;;;;;;7.85;2.85;;;;;;;13.05;100.00;100879.78;4947568;28;20046;-68
2023/09/01 01:54:59;;;;;;;6.57;2.92;;;;;;;13.07;100.00;100876.19;4944967;28;20027;-68
2023/09/01 01:57:24;;;;;;;9.25;2.72;;;;;;;13.11;100.00;100882.66;4976054;28;20421;-68
2023/09/01 01:59:50;;;;;;;9.93;3.33;;;;;;;13.13;100.00;100878.09;4941818;28;20043;-68
2023/09/01 02:02:15;;;;;;;13.18;3.70;;;;;;;13.19;100.00;100883.44;4960136;28;20090;-68
2023/09/01 02:04:41;;;;;;;9.85;3.75;;;;;;;13.17;100.00;100869.81;4943414;28;20039;-68
2023/09/01 02:07:07;;;;;;;14.27;3.90;;;;;;;13.23;100.00;100876.13;4945608;28;20041;-68
2023/09/01 02:09:33;;;;;;;14.43;3.70;;;;;;;13.18;100.00;100871.41;4976818;28;20042;-67
2023/09/01 02:11:59;;;;;;;16.80;4.15;;;;;;;13.15;100.00;100876.16;4946837;28;20039;-68
2023/09/01 02:14:25;;;;;;;9.40;5.15;;;;;;;13.17;100.00;100879.41;4970058;28;20804;-68
2023/09/01 02:16:50;;;;;;;11.15;4.07;;;;;;;13.12;100.00;100879.91;4944512;28;20035;-68
2023/09/01 02:19:16;;;;;;;11.35;3.75;;;;;;;13.15;100.00;100890.00;4961333;28;20547;-67
2023/09/01 02:21:41;;;;;;;8.52;3.53;;;;;;;13.17;100.00;100882.81;4963582;28;20042;-67
2023/09/01 02:24:07;;;;;;;13.75;4.45;;;;;;;13.32;100.00;100877.72;4962534;28;20043;-68
2023/09/01 02:26:32;;;;;;;6.35;3.20;;;;;;;13.34;100.00;100867.13;4943978;28;20027;-68
2023/09/01 02:28:58;;;;;;;12.50;4.03;;;;;;;13.28;100.00;100871.22;4952618;28;20093;-68
2023/09/01 02:31:24;;;;;;;12.02;3.53;;;;;;;13.29;100.00;100872.00;4959205;28;20061;-66
2023/09/01 02:33:50;;;;;;;15.35;4.45;;;;;;;13.26;100.00;100873.19;4946708;28;20441;-68
2023/09/01 02:36:33;;;;;;;10.38;3.80;;;;;;;13.28;100.00;100875.59;4956610;28;20030;-68
2023/09/01 02:39:00;;;;;;;14.15;3.72;;;;;;;13.23;100.00;100873.50;4958703;28;20051;-68
2023/09/01 02:41:26;;;;;;;9.27;3.67;;;;;;;13.25;100.00;100881.97;4976990;28;20035;-68
2023/09/01 02:43:53;;;;;;;10.60;4.43;;;;;;;13.25;100.00;100887.16;4964290;28;20066;-68
2023/09/01 02:46:18;;;;;;;8.23;3.83;;;;;;;13.25;100.00;100879.34;4980195;28;20038;-67
2023/09/01 02:48:44;;;;;;;10.77;4.70;;;;;;;13.26;100.00;100878.38;4980216;28;20045;-68
2023/09/01 02:51:10;;;;;;;8.07;4.03;;;;;;;13.25;100.00;100876.75;4946637;28;20031;-67
2023/09/01 02:53:37;;;;;;;8.07;3.60;;;;;;;13.27;100.00;100873.97;4975231;28;20026;-68
2023/09/01 02:56:03;;;;;;;11.60;3.75;;;;;;;13.26;100.00;100873.19;4950990;28;20053;-68
2023/09/01 02:58:29;;;;;;;10.38;3.60;;;;;;;13.29;100.00;100872.00;4979234;28;20392;-68
2023/09/01 03:00:55;;;;;;;6.88;3.42;;;;;;;13.31;100.00;100870.06;4974489;28;20050;-68
2023/09/01 03:03:22;;;;;;;8.85;3.35;;;;;;;13.32;100.00;100869.09;4978188;28;20046;-68
2023/09/01 03:05:49;;;;;;;11.55;3.97;;;;;;;13.34;100.00;100867.13;4967572;28;20038;-67
2023/09/01 03:08:17;;;;;;;9.55;4.03;;;;;;;13.33;100.00;100868.09;4978228;28;20026;-68
2023/09/01 03:10:43;;;;;;;10.60;4.20;;;;;;;13.42;100.00;100874.88;4981350;28;20038;-68
2023/09/01 03:13:09;;;;;;;10.00;4.10;;;;;;;13.40;100.00;100867.25;4950820;28;20026;-68
2023/09/01 03:15:34;;;;;;;11.98;4.60;;;;;;;13.43;100.00;100873.94;4978238;28;20042;-68
2023/09/01 03:18:00;;;;;;;9.20;4.22;;;;;;;13.47;100.00;100871.75;4964883;28;20037;-68
2023/09/01 03:20:26;;;;;;;10.70;4.00;;;;;;;13.36;100.00;100873.78;4979218;28;20058;-68
2023/09/01 03:22:51;;;;;;;8.85;4.18;;;;;;;13.34;100.00;100867.94;4963350;28;20034;-68
2023/09/01 03:25:17;;;;;;;9.82;4.18;;;;;;;13.31;100.00;100865.66;4981293;28;20112;-68
2023/09/01 03:27:43;;;;;;;10.73;4.60;;;;;;;13.33;100.00;100863.69;4959619;28;20034;-67
2023/09/01 03:30:10;;;;;;;15.07;4.85;;;;;;;13.36;100.00;100865.97;4963919;28;20559;-66
2023/09/01 03:32:38;;;;;;;6.90;4.00;;;;;;;13.36;100.00;100867.78;4979431;28;20983;-67
2023/09/01 03:35:04;;;;;;;11.70;4.32;;;;;;;13.34;100.00;100875.75;4980987;28;20037;-68
2023/09/01 03:37:30;;;;;;;8.30;4.15;;;;;;;13.33;100.00;100866.31;4967897;28;20053;-68
2023/09/01 03:39:56;;;;;;;8.18;3.95;;;;;;;13.35;100.00;100868.75;4969436;28;20501;-68
2023/09/01 03:42:21;;;;;;;9.20;3.88;;;;;;;13.36;100.00;100872.97;4962628;28;20420;-68
2023/09/01 03:44:48;;;;;;;8.07;3.33;;;;;;;13.39;100.00;100870.03;4981900;28;20109;-67
2023/09/01 03:47:14;;;;;;;7.28;3.75;;;;;;;13.39;100.00;100868.25;4962685;28;20133;-67
2023/09/01 03:49:40;;;;;;;9.43;3.90;;;;;;;13.41;100.00;100868.03;4961905;28;20469;-66
2023/09/01 03:52:06;;;;;;;13.02;4.97;;;;;;;13.44;100.00;100871.13;4981218;28;20061;-68
2023/09/01 03:54:31;;;;;;;14.70;4.55;;;;;;;13.45;100.00;100858.94;4966309;28;20022;-68
2023/09/01 03:56:57;;;;;;;8.23;4.45;;;;;;;13.57;100.00;100861.94;4964311;28;20723;-68
2023/09/01 03:59:22;;;;;;;9.10;3.95;;;;;;;13.56;100.00;100862.91;4975461;28;20030;-68
2023/09/01 04:01:48;;;;;;;13.77;4.20;;;;;;;13.54;100.00;100860.50;4975662;28;20038;-68
2023/09/01 04:04:14;;;;;;;10.10;3.95;;;;;;;13.60;100.00;100859.78;4951055;28;20050;-68
2023/09/01 04:06:40;;;;;;;9.13;5.30;;;;;;;13.62;100.00;100850.00;4977850;28;20046;-68
2023/09/01 04:09:06;;;;;;;9.52;4.00;;;;;;;13.57;100.00;100852.31;4978809;28;20146;-68
2023/09/01 04:11:32;;;;;;;9.00;4.63;;;;;;;13.60;100.00;100848.56;4970019;28;20128;-68
2023/09/01 04:13:58;;;;;;;7.10;4.40;;;;;;;13.61;100.00;100847.56;4976643;28;20121;-68
2023/09/01 04:16:24;;;;;;;11.18;4.75;;;;;;;13.59;100.00;100852.94;4967646;28;20149;-67
2023/09/01 04:18:51;;;;;;;6.30;4.10;;;;;;;13.55;100.00;100850.88;4979687;28;20034;-68
2023/09/01 04:21:17;;;;;;;8.77;4.18;;;;;;;13.59;100.00;100857.34;4976931;28;20038;-67
2023/09/01 04:23:43;;;;;;;10.45;4.57;;;;;;;13.66;100.00;100862.69;4960114;28;20035;-68
2023/09/01 04:26:12;;;;;;;7.88;4.38;;;;;;;13.57;100.00;100862.75;4975305;28;20171;-68
2023/09/01 04:28:37;;;;;;;5.63;3.92;;;;;;;13.55;100.00;100856.88;4981788;28;20034;-68
2023/09/01 04:31:32;;;;;;;10.32;4.57;;;;;;;13.49;100.00;100862.00;4982560;28;20030;-68
2023/09/01 04:34:00;;;;;;;8.73;3.80;;;;;;;13.51;100.00;100860.03;4975341;28;20030;-68
2023/09/01 04:36:25;;;;;;;10.32;4.80;;;;;;;13.58;100.00;100860.94;4983980;28;20700;-68
2023/09/01 04:38:52;;;;;;;9.52;3.90;;;;;;;13.52;100.00;100869.44;4975499;28;20425;-68
2023/09/01 04:41:19;;;;;;;10.38;5.05;;;;;;;13.50;100.00;100864.41;4960911;28;20516;-69
2023/09/01 04:43:44;;;;;;;10.63;4.45;;;;;;;13.54;100.00;100864.88;4966672;28;20049;-69
2023/09/01 04:46:11;;;;;;;14.98;4.90;;;;;;;13.53;100.00;100868.47;4963566;28;20524;-69
2023/09/01 04:48:37;;;;;;;8.35;4.07;;;;;;;13.51;100.00;100865.25;4978847;28;20038;-69
2023/09/01 04:51:02;;;;;;;9.80;4.50;;;;;;;13.57;100.00;100860.13;4977848;28;20057;-68
2023/09/01 04:53:32;;;;;;;11.55;4.70;;;;;;;13.74;100.00;100849.59;4975406;28;20528;-68
2023/09/01 04:55:58;;;;;;;12.93;5.88;;;;;;;13.70;100.00;100849.13;4978250;28;20046;-69
2023/09/01 04:58:23;;;;;;;15.98;4.65;;;;;;;13.65;100.00;100848.03;4969609;28;20109;-68
2023/09/01 05:00:53;;;;;;;12.45;4.97;;;;;;;13.68;100.00;100851.09;4978348;28;20039;-68
2023/09/01 05:03:19;;;;;;;9.52;5.38;;;;;;;13.71;100.00;100853.38;4967411;28;20047;-68
2023/09/01 05:05:46;;;;;;;9.20;4.75;;;;;;;13.69;100.00;100854.50;4984065;28;20034;-69
2023/09/01 05:08:12;;;;;;;12.43;5.85;;;;;;;13.64;100.00;100852.44;4967559;28;20018;-69
2023/09/01 05:10:38;;;;;;;9.55;5.35;;;;;;;13.74;100.00;100854.81;4967928;28;20114;-69
2023/09/01 05:13:04;;;;;;;11.52;7.28;;;;;;;13.67;100.00;100857.28;4970827;28;20037;-68
2023/09/01 05:15:30;;;;;;;15.95;7.38;;;;;;;13.78;100.00;100854.25;4960378;28;20031;-68
2023/09/01 05:17:56;;;;;;;13.23;7.80;;;;;;;13.83;100.00;100853.75;4953526;28;20517;-69
2023/09/01 05:20:22;;;;;;;11.77;7.35;;;;;;;13.72;100.00;100851.56;4981188;28;20042;-69
2023/09/01 05:22:47;;;;;;;13.85;7.63;;;;;;;13.69;100.00;100850.09;4981189;28;20074;-69
2023/09/01 05:25:14;;;;;;;13.80;8.65;;;;;;;13.73;100.00;100859.22;4982175;28;20101;-69
2023/09/01 05:27:40;;;;;;;19.70;9.02;;;;;;;13.76;100.00;100866.66;4968502;28;20058;-69
2023/09/01 05:30:06;;;;;;;18.05;8.75;;;;;;;13.80;100.00;100872.34;4998000;28;20457;-69
2023/09/01 05:32:31;;;;;;;15.50;8.75;;;;;;;13.74;100.00;100879.06;4981100;28;20042;-69
2023/09/01 05:34:57;;;;;;;20.02;9.45;;;;;;;13.79;100.00;100879.34;4964487;28;20045;-69
2023/09/01 05:37:23;;;;;;;18.52;8.65;;;;;;;13.87;100.00;100875.88;4985588;28;20404;-69
2023/09/01 05:39:48;;;;;;;16.50;9.23;;;;;;;13.96;100.00;100869.59;4984931;28;20166;-68
2023/09/01 05:42:14;;;;;;;17.65;8.70;;;;;;;13.92;100.00;100857.09;4979205;28;20046;-69
2023/09/01 05:44:41;;;;;;;18.52;10.35;;;;;;;13.95;100.00;100860.16;4966154;28;20053;-69
2023/09/01 05:47:07;;;;;;;17.33;9.75;;;;;;;14.08;100.00;100869.19;4966300;28;20453;-69
2023/09/01 05:49:34;;;;;;;15.00;9.80;;;;;;;14.02;100.00;100855.06;4968231;28;20512;-68
2023/09/01 05:52:00;;;;;;;15.40;8.05;;;;;;;14.04;100.00;100855.69;4979203;28;20042;-69
2023/09/01 05:54:26;;;;;;;17.30;8.75;;;;;;;14.16;100.00;100850.84;4967041;28;20129;-68
2023/09/01 05:56:52;;;;;;;15.85;8.15;;;;;;;14.16;100.00;100849.03;4984486;28;20061;-68
2023/09/01 05:59:18;;;;;;;15.98;8.13;;;;;;;14.21;100.00;100844.09;4981357;28;20745;-69
2023/09/01 06:01:44;;;;;;;17.95;8.95;;;;;;;14.27;100.00;100839.97;4967039;28;20413;-69
2023/09/01 06:04:09;;;;;;;16.40;7.65;;;;;;;14.35;100.00;100836.47;4982275;28;20039;-68
2023/09/01 06:06:35;;;;;;;13.93;8.50;;;;;;;14.35;100.00;100842.50;4979791;28;20046;-68
2023/09/01 06:09:04;;;;;;;10.90;7.68;;;;;;;14.49;100.00;100851.31;4985894;28;20045;-69
2023/09/01 06:11:30;;;;;;;13.95;8.27;;;;;;;14.42;100.00;100847.81;4980956;28;20050;-68
2023/09/01 06:13:56;;;;;;;17.70;8.52;;;;;;;14.38;100.00;100842.13;4981252;28;20791;-69
2023/09/01 06:16:22;;;;;;;12.90;7.70;;;;;;;14.50;100.00;100855.53;4980449;28;20035;-69
2023/09/01 06:18:47;;;;;;;10.35;7.45;;;;;;;14.51;100.00;100866.78;4979409;28;20065;-69
2023/09/01 06:21:16;;;;;;;14.45;8.23;;;;;;;14.55;100.00;100858.41;4981577;28;20049;-69
2023/09/01 06:23:44;;;;;;;15.07;7.90;;;;;;;14.56;100.00;100874.88;4985296;28;20515;-68
2023/09/01 06:26:11;;;;;;;15.25;8.52;;;;;;;14.68;100.00;100865.63;4979200;28;20041;-68
2023/09/01 06:28:37;;;;;;;13.23;7.47;;;;;;;14.57;100.00;100872.13;4985667;28;20022;-68
2023/09/01 06:31:03;;;;;;;11.48;7.15;;;;;;;14.56;100.00;100867.88;4964513;28;20858;-68
2023/09/01 06:33:28;;;;;;;13.43;8.25;;;;;;;14.58;100.00;100865.13;4965023;28;20047;-68
2023/09/01 06:35:54;;;;;;;16.05;7.55;;;;;;;14.63;100.00;100861.94;4980527;28;20093;-68
2023/09/01 06:38:19;;;;;;;12.05;7.15;;;;;;;14.68;100.00;100867.44;4979963;28;20496;-68
2023/09/01 06:40:44;;;;;;;13.23;6.88;;;;;;;14.69;100.00;100874.28;4966396;28;20037;-68
2023/09/01 06:43:10;;;;;;;15.05;6.80;;;;;;;14.72;100.00;100876.53;4980555;28;20041;-68
2023/09/01 06:45:35;;;;;;;14.43;7.97;;;;;;;14.71;100.00;100873.13;4979060;28;20085;-69
2023/09/01 06:48:01;;;;;;;12.38;7.00;;;;;;;14.75;100.00;100870.97;4981306;28;20046;-68
2023/09/01 06:50:28;;;;;;;10.98;6.30;;;;;;;14.78;100.00;100868.75;4979253;28;20041;-68
2023/09/01 06:52:53;;;;;;;13.18;6.78;;;;;;;14.83;100.00;100872.66;4966862;28;20038;-68
2023/09/01 06:55:19;;;;;;;9.20;6.75;;;;;;;14.79;100.00;100873.00;4980917;28;20403;-68
2023/09/01 06:57:44;;;;;;;13.82;6.45;;;;;;;14.89;100.00;100874.53;4985179;28;20093;-68
2023/09/01 07:00:10;;;;;;;10.80;6.28;;;;;;;14.94;100.00;100873.00;4981847;28;20408;-68
2023/09/01 07:02:36;;;;;;;13.43;6.93;;;;;;;15.01;100.00;100861.81;4998041;28;20053;-68
2023/09/01 07:05:02;;;;;;;10.10;7.10;;;;;;;14.98;100.00;100861.19;4980852;28;20034;-68
2023/09/01 07:07:28;;;;;;;14.05;7.07;;;;;;;15.03;100.00;100855.44;4980360;28;20044;-68
2023/09/01 07:09:54;;;;;;;10.77;6.32;;;;;;;15.14;100.00;100856.72;4981304;28;20018;-68
2023/09/01 07:12:19;;;;;;;13.60;6.65;;;;;;;15.22;100.00;100848.81;4965973;28;20035;-67
2023/09/01 07:14:44;;;;;;;13.48;7.50;;;;;;;15.24;100.00;100846.81;4965618;28;20023;-68
2023/09/01 07:17:11;;;;;;;11.15;6.10;;;;;;;15.27;100.00;100843.00;4981269;28;20031;-68
2023/09/01 07:19:37;;;;;;;13.50;7.25;;;;;;;15.26;100.00;100844.03;4978764;28;21264;-68
2023/09/01 07:22:04;;;;;;;10.40;6.57;;;;;;;15.33;100.00;100842.25;4963413;28;20030;-68
2023/09/01 07:24:31;;;;;;;13.65;6.82;;;;;;;15.33;100.00;100845.69;4965305;28;20037;-67
2023/09/01 07:26:57;;;;;;;13.07;6.90;;;;;;;15.47;100.00;100844.00;4966445;28;20038;-68
2023/09/01 07:29:22;;;;;;;12.95;6.60;;;;;;;15.48;100.00;100850.03;4967376;28;20049;-68
2023/09/01 07:31:47;;;;;;;12.85;6.63;;;;;;;15.53;100.00;100850.28;4982425;28;20497;-68
2023/09/01 07:34:13;;;;;;;11.85;6.03;;;;;;;15.48;100.00;100848.25;4995664;28;20039;-68
2023/09/01 07:36:38;;;;;;;13.43;6.60;;;;;;;15.52;100.00;100849.50;4962698;28;20038;-68
2023/09/01 07:39:04;;;;;;;12.93;6.28;;;;;;;15.70;100.00;100845.63;4978482;28;20034;-68
2023/09/01 07:41:29;;;;;;;12.45;6.22;;;;;;;15.75;100.00;100838.06;4980986;28;20043;-68
2023/09/01 07:43:55;;;;;;;14.32;6.38;;;;;;;15.83;100.00;100842.34;4964177;28;20019;-68
2023/09/01 07:46:20;;;;;;;10.32;6.07;;;;;;;15.63;100.00;100848.16;4965194;28;20039;-68
2023/09/01 07:48:46;;;;;;;10.80;6.25;;;;;;;15.61;100.00;100854.59;4944522;28;20035;-68
2023/09/01 07:51:12;;;;;;;12.20;6.35;;;;;;;15.73;100.00;100855.72;4949748;28;20463;-68
2023/09/01 07:53:38;;;;;;;10.30;5.55;;;;;;;15.62;100.00;100861.44;4961655;28;20512;-68
2023/09/01 07:56:04;;;;;;;13.30;7.50;;;;;;;15.58;100.00;100861.81;4948394;28;20492;-68
2023/09/01 07:58:30;;;;;;;16.27;6.82;;;;;;;15.72;100.00;100865.31;4963966;28;20041;-68
2023/09/01 08:00:56;;;;;;;10.82;6.00;;;;;;;15.72;100.00;100867.16;4942723;28;20628;-68
2023/09/01 08:03:21;;;;;;;11.65;6.03;;;;;;;15.62;100.00;100867.47;4945713;28;20035;-68
2023/09/01 08:05:47;;;;;;;12.80;6.75;;;;;;;15.62;100.00;100866.66;4949533;28;20114;-68
2023/09/01 08:08:13;;;;;;;12.80;6.28;;;;;;;15.54;100.00;100870.22;4963031;28;20466;-68
2023/09/01 08:10:39;;;;;;;13.38;7.22;;;;;;;15.64;100.00;100868.09;4960209;28;20066;-69
2023/09/01 08:13:05;;;;;;;12.55;7.03;;;;;;;15.69;100.00;100865.72;4961399;28;20030;-68
2023/09/01 08:15:32;;;;;;;10.23;6.35;;;;;;;15.68;100.00;100874.56;4962818;28;20062;-68
2023/09/01 08:17:58;;;;;;;13.20;6.85;;;;;;;15.66;100.00;100873.94;4960577;28;20046;-68
2023/09/01 08:20:23;;;;;;;9.88;5.97;;;;;;;15.63;100.00;100876.91;4943294;28;20054;-68
2023/09/01 08:22:49;;;;;;;17.33;5.78;;;;;;;15.63;100.00;100878.72;4946552;28;20509;-68
2023/09/01 08:25:14;;;;;;;8.23;4.43;;;;;;;15.60;100.00;100876.50;4964132;28;20101;-68
2023/09/01 08:27:40;;;;;;;8.27;5.20;;;;;;;15.53;100.00;100881.66;4970665;28;20026;-69
2023/09/01 08:30:06;;;;;;;10.32;5.68;;;;;;;15.54;100.00;100884.09;4956204;28;20453;-68
2023/09/01 08:32:33;;;;;;;10.35;4.80;;;;;;;15.58;100.00;100879.28;4932106;28;20042;-68
2023/09/01 08:35:00;;;;;;;9.20;3.97;;;;;;;15.52;100.00;100885.25;4980716;28;20117;-69
2023/09/01 08:37:26;;;;;;;7.45;3.30;;;;;;;15.51;100.00;100884.44;4949884;28;20125;-68
2023/09/01 08:39:51;;;;;;;12.98;5.20;;;;;;;15.59;100.00;100878.28;4965387;28;20043;-68
2023/09/01 08:42:18;;;;;;;7.43;4.25;;;;;;;15.52;100.00;100877.41;4966202;28;20046;-68
2023/09/01 08:44:45;;;;;;;12.35;5.53;;;;;;;15.52;100.00;100874.78;4949450;28;20033;-68
2023/09/01 08:47:11;;;;;;;8.52;5.68;;;;;;;15.53;100.00;100879.84;4970370;28;20121;-68
2023/09/01 08:49:36;;;;;;;14.23;8.25;;;;;;;15.51;100.00;100878.41;4978459;28;20126;-68
2023/09/01 08:52:03;;;;;;;11.20;7.25;;;;;;;15.49;100.00;100875.97;4979623;28;20039;-68
2023/09/01 08:54:30;;;;;;;17.27;6.95;;;;;;;15.51;100.00;100874.00;4970424;28;20152;-68
2023/09/01 08:56:56;;;;;;;13.10;7.22;;;;;;;15.53;100.00;100881.66;4965002;28;20049;-68
2023/09/01 08:59:21;;;;;;;13.15;6.93;;;;;;;15.49;100.00;100878.59;4969022;28;20067;-68
2023/09/01 09:01:48;;;;;;;18.15;8.85;;;;;;;15.56;100.00;100884.69;4977073;28;20050;-68
2023/09/01 09:04:14;;;;;;;16.63;8.05;;;;;;;15.53;100.00;100884.25;4965829;28;20031;-68
2023/09/01 09:06:40;;;;;;;15.63;7.97;;;;;;;15.51;100.00;100887.06;4962158;28;20090;-68
2023/09/01 09:09:24;;;;;;;14.82;8.05;;;;;;;15.47;100.00;100903.31;4949117;28;20042;-68
2023/09/01 09:11:59;;;;;;;14.77;7.03;;;;;;;15.46;100.00;100910.31;4951982;28;20126;-69
2023/09/01 09:14:30;;;;;;;11.63;7.35;;;;;;;15.43;100.00;100905.47;4963923;28;20035;-69
2023/09/01 09:16:57;;;;;;;14.80;8.30;;;;;;;15.46;100.00;100914.75;4951088;28;20495;-68
2023/09/01 09:19:23;;;;;;;12.85;8.07;;;;;;;15.49;100.00;100919.59;4961707;28;20509;-68
2023/09/01 09:22:02;;;;;;;14.10;7.63;;;;;;;15.44;100.00;100917.53;4971241;28;20043;-69
2023/09/01 09:24:36;;;;;;;11.25;8.02;;;;;;;15.50;100.00;100913.38;4966123;28;20043;-68
2023/09/01 09:27:03;;;;;;;12.80;8.38;;;;;;;15.43;100.00;100918.53;4963534;28;20047;-68
2023/09/01 09:29:38;;;;;;;13.30;7.60;;;;;;;15.42;100.00;100922.13;4963263;28;20046;-68
2023/09/01 09:32:26;;;;;;;16.90;7.50;;;;;;;15.39;100.00;100917.31;4969761;28;20497;-68
2023/09/01 09:35:09;;;;;;;12.25;6.97;;;;;;;15.40;100.00;100929.34;4963981;28;20031;-68
2023/09/01 09:37:35;;;;;;;;;;;;;;;15.39;100.00;100932.97;4964539;28;20401;-68
2023/09/01 09:40:27;;;;;;;10.30;5.85;;;;;;;15.38;100.00;100932.16;4967752;28;19914;-69
2023/09/01 09:42:57;;;;;;;8.70;5.82;;;;;;;15.40;100.00;100934.56;4958393;28;20031;-69
2023/09/01 09:45:29;;;;;;;10.85;6.72;;;;;;;15.34;100.00;100935.31;4975963;28;20583;-69
2023/09/01 09:48:04;;;;;;;9.45;6.18;;;;;;;15.32;100.00;100929.47;4963405;28;20038;-68
2023/09/01 09:50:30;;;;;;;10.70;6.53;;;;;;;15.31;100.00;100936.50;4985141;28;20072;-68
2023/09/01 09:53:00;;;;;;;13.98;6.82;;;;;;;15.34;100.00;100937.94;4985826;28;20046;-68
2023/09/01 09:55:33;;;;;;;10.50;6.53;;;;;;;15.36;100.00;100934.13;4985180;28;20038;-69
2023/09/01 09:58:04;;;;;;;15.37;7.10;;;;;;;15.37;100.00;100929.75;4963316;28;20047;-68
2023/09/01 10:00:42;;;;;;;8.45;5.60;;;;;;;15.38;100.00;100934.75;4986804;28;21957;-68
2023/09/01 10:03:08;;;;;;;7.95;4.95;;;;;;;15.42;100.00;100929.16;4984225;28;20055;-68
2023/09/01 10:05:34;;;;;;;9.15;5.68;;;;;;;15.41;100.00;100933.59;4984325;28;20036;-69
2023/09/01 10:08:05;;;;;;;10.25;5.22;;;;;;;15.51;100.00;100935.91;4968007;28;20078;-68
2023/09/01 10:10:34;;;;;;;6.68;5.18;;;;;;;15.54;100.00;100938.16;4981876;28;20034;-68
2023/09/01 10:13:02;;;;;;;9.10;5.88;;;;;;;15.58;100.00;100934.19;4979328;28;20405;-68
2023/09/01 10:15:29;;;;;;;12.57;5.30;;;;;;;15.64;100.00;100924.78;4977761;28;20113;-68
2023/09/01 10:17:59;;;;;;;7.80;5.10;;;;;;;15.78;100.00;100926.53;4994059;28;20442;-68
2023/09/01 10:20:25;;;;;;;8.60;4.97;;;;;;;15.72;100.00;100930.69;4967180;28;20420;-68
2023/09/01 10:22:50;;;;;;;8.18;5.05;;;;;;;15.79;100.00;100927.38;4962065;28;20097;-68
2023/09/01 10:25:18;;;;;;;9.68;5.50;;;;;;;15.88;100.00;100927.06;4980193;28;20465;-68
2023/09/01 10:28:13;;;;;;;7.05;5.13;;;;;;;15.83;100.00;100926.00;4963477;28;20049;-68
2023/09/01 10:30:44;;;;;;;6.10;4.53;;;;;;;15.87;100.00;100924.63;4979239;28;20133;-70
2023/09/01 10:33:15;;;;;;;6.75;4.78;;;;;;;15.92;100.00;100924.88;4950392;28;20042;-68
2023/09/01 10:35:45;;;;;;;8.95;5.32;;;;;;;15.94;100.00;100923.69;4984874;28;20035;-68
2023/09/01 10:38:13;;;;;;;5.97;4.20;;;;;;;16.01;100.00;100928.97;4982200;28;20046;-68
2023/09/01 10:40:53;;;;;;;7.45;4.25;;;;;;;16.08;100.00;100935.03;4996033;28;20030;-68
2023/09/01 10:43:37;;;;;;;6.68;4.25;;;;;;;16.18;100.00;100934.75;4967510;28;20054;-69
2023/09/01 10:46:14;;;;;;;7.75;4.50;;;;;;;16.08;100.00;100924.59;4962898;28;20053;-69
2023/09/01 10:48:59;;;;;;;8.90;3.85;;;;;;;16.20;100.00;100926.69;4968740;28;20046;-69
2023/09/01 10:51:27;;;;;;;8.38;4.03;;;;;;;16.21;100.00;100930.94;4963300;28;20036;-68
2023/09/01 10:54:00;;;;;;;9.98;4.18;;;;;;;16.23;100.00;100923.69;4961330;28;20034;-69
2023/09/01 10:56:30;;;;;;;7.60;3.50;;;;;;;16.29;100.00;100918.53;4950985;28;20036;-68
2023/09/01 10:58:57;;;;;;;9.88;3.72;;;;;;;16.25;100.00;100921.69;4965806;28;20402;-68
2023/09/01 11:01:37;;;;;;;5.13;3.22;;;;;;;16.28;100.00;100914.28;4968623;28;20054;-69
2023/09/01 11:04:19;;;;;;;4.72;3.35;;;;;;;16.32;100.00;100925.19;4966968;28;20629;-68
2023/09/01 11:06:57;;;;;;;6.18;4.18;;;;;;;16.38;100.00;100913.13;4976592;28;20039;-68
2023/09/01 11:09:34;;;;;;;4.97;3.25;;;;;;;16.34;100.00;100920.56;4950989;28;20041;-69
2023/09/01 11:12:00;;;;;;;3.65;2.65;;;;;;;16.40;100.00;100914.56;4941106;28;20039;-68
2023/09/01 11:14:25;;;;;;;4.45;3.15;;;;;;;16.37;100.00;100920.19;4959658;28;20130;-68